Time;durP1;ratioP1;P1;durP2;ratioP2;P2;SDS_P1;SDS_P2;PMS_P1;PMS_P2;Temp;Humidity;BMP_temperature;BMP_pressure;BME280_temperature;BME280_humidity;BME280_pressure;Samples;Min_cycle;Max_cycle;Signal;HPM_P1;HPM_P2
2021/10/08 00:01:56;;;;;;;16.95;10.43;;;;;;;13.54;63.41;102848.47;4838345;28;119808;-74
2021/10/08 00:04:22;;;;;;;17.33;10.18;;;;;;;13.45;63.30;102835.19;4830712;28;122181;-74
2021/10/08 00:06:48;;;;;;;14.77;9.55;;;;;;;13.51;63.44;102847.34;4847987;28;119407;-74
2021/10/08 00:09:16;;;;;;;15.18;10.18;;;;;;;13.44;63.24;102836.41;4843821;28;119854;-75
2021/10/08 00:11:42;;;;;;;16.85;9.63;;;;;;;13.40;63.21;102828.19;4843641;28;120574;-74
2021/10/08 00:14:08;;;;;;;16.25;10.35;;;;;;;13.43;63.02;102843.88;4830544;28;119715;-74
2021/10/08 00:16:34;;;;;;;17.00;9.70;;;;;;;13.38;63.04;102840.84;4848905;28;120348;-74
2021/10/08 00:19:02;;;;;;;14.65;10.02;;;;;;;13.35;63.03;102850.72;4849358;28;122552;-74
2021/10/08 00:21:30;;;;;;;15.95;10.20;;;;;;;13.36;62.96;102851.50;4814150;28;119631;-73
2021/10/08 00:23:56;;;;;;;14.93;10.05;;;;;;;13.27;63.38;102832.75;4837712;28;120055;-74
2021/10/08 00:26:22;;;;;;;15.88;9.73;;;;;;;13.38;63.32;102854.63;4855855;28;120612;-73
2021/10/08 00:28:49;;;;;;;15.77;10.35;;;;;;;13.37;64.01;102864.09;4826829;28;119518;-74
2021/10/08 00:31:15;;;;;;;12.98;9.05;;;;;;;13.38;63.35;102866.41;4838211;28;120380;-73
2021/10/08 00:33:42;;;;;;;17.70;10.48;;;;;;;13.36;63.43;102863.31;4841863;28;119892;-74
2021/10/08 00:36:09;;;;;;;21.00;11.00;;;;;;;13.35;63.45;102856.22;4824617;28;119943;-74
2021/10/08 00:38:37;;;;;;;18.95;10.32;;;;;;;13.35;63.68;102872.78;4847903;28;120054;-73
2021/10/08 00:41:06;;;;;;;22.75;13.60;;;;;;;13.30;63.31;102855.94;4836565;28;119637;-74
2021/10/08 00:43:33;;;;;;;23.80;13.23;;;;;;;13.33;63.48;102858.63;4833058;28;120027;-74
2021/10/08 00:46:01;;;;;;;28.75;13.70;;;;;;;13.33;64.04;102858.63;4830152;28;120031;-75
2021/10/08 00:48:27;;;;;;;23.45;13.18;;;;;;;13.27;63.35;102854.78;4846028;28;119834;-74
2021/10/08 00:50:53;;;;;;;20.15;12.55;;;;;;;13.32;63.65;102861.81;4845498;28;119880;-74
2021/10/08 00:53:20;;;;;;;25.45;14.45;;;;;;;13.29;63.02;102862.63;4821081;28;119413;-74
2021/10/08 00:55:51;;;;;;;31.38;16.35;;;;;;;13.16;63.13;102854.13;4818480;28;119447;-74
2021/10/08 00:58:20;;;;;;;32.33;16.58;;;;;;;13.21;62.97;102867.47;4807321;28;120962;-73
2021/10/08 01:00:51;;;;;;;26.52;15.32;;;;;;;13.13;63.12;102863.22;4824809;28;119333;-74
2021/10/08 01:03:19;;;;;;;25.98;14.40;;;;;;;13.14;63.22;102870.28;4849828;28;120104;-73
2021/10/08 01:05:46;;;;;;;24.38;14.45;;;;;;;13.09;63.52;102868.00;4829480;28;119403;-73
2021/10/08 01:08:16;;;;;;;23.65;13.00;;;;;;;13.09;63.30;102873.53;4816966;28;123933;-75
2021/10/08 01:10:46;;;;;;;29.63;16.85;;;;;;;13.01;63.38;102869.28;4848362;28;122346;-74
2021/10/08 01:13:15;;;;;;;28.77;15.52;;;;;;;13.04;63.40;102868.47;4823640;28;119898;-75
2021/10/08 01:15:44;;;;;;;28.67;16.25;;;;;;;13.03;63.51;102869.66;4832688;28;121139;-74
2021/10/08 01:18:09;;;;;;;25.45;14.82;;;;;;;12.95;63.50;102859.91;4842646;28;119569;-74
2021/10/08 01:20:36;;;;;;;28.02;15.32;;;;;;;12.90;63.63;102861.16;4823335;29;119920;-74
2021/10/08 01:23:09;;;;;;;32.97;16.50;;;;;;;12.89;63.48;102868.66;4840460;28;120514;-74
2021/10/08 01:25:41;;;;;;;30.10;17.60;;;;;;;12.89;63.68;102871.41;4848171;28;122552;-73
2021/10/08 01:28:12;;;;;;;35.15;16.92;;;;;;;12.92;63.71;102878.06;4803283;28;120386;-74
2021/10/08 01:30:43;;;;;;;26.70;15.25;;;;;;;12.88;63.92;102880.88;4851116;28;119452;-74
2021/10/08 01:33:10;;;;;;;28.60;16.00;;;;;;;12.89;63.95;102873.38;4841282;28;119437;-74
2021/10/08 01:35:40;;;;;;;25.40;16.33;;;;;;;12.87;63.73;102875.78;4829641;28;120185;-75
2021/10/08 01:38:07;;;;;;;29.13;15.52;;;;;;;12.89;63.91;102885.19;4845774;28;119360;-74
2021/10/08 01:40:35;;;;;;;28.83;16.80;;;;;;;12.89;63.73;102887.94;4821009;28;120130;-74
2021/10/08 01:43:11;;;;;;;28.52;15.13;;;;;;;12.87;63.77;102893.06;4821542;28;120653;-74
2021/10/08 01:45:38;;;;;;;23.13;14.23;;;;;;;12.82;63.67;102867.97;4835012;28;119721;-74
2021/10/08 01:48:06;;;;;;;24.02;14.88;;;;;;;12.71;63.29;102867.31;4854637;28;119416;-74
2021/10/08 01:50:35;;;;;;;32.35;17.70;;;;;;;12.80;63.51;102878.63;4816030;28;122639;-74
2021/10/08 01:53:03;;;;;;;31.25;17.52;;;;;;;12.84;63.58;102888.41;4829246;28;119353;-74
2021/10/08 01:55:45;;;;;;;27.80;16.60;;;;;;;12.76;63.63;102870.38;4837647;28;119382;-74
2021/10/08 01:58:11;;;;;;;24.25;14.60;;;;;;;12.80;63.68;102892.41;4839770;28;119147;-75
2021/10/08 02:00:38;;;;;;;25.98;14.35;;;;;;;12.77;63.63;102887.69;4818229;28;121000;-75
2021/10/08 02:03:21;;;;;;;24.57;15.40;;;;;;;12.75;63.18;102890.84;4822463;28;119802;-74
2021/10/08 02:05:46;;;;;;;25.35;14.68;;;;;;;12.72;63.10;102885.38;4846271;28;122098;-74
2021/10/08 02:08:13;;;;;;;19.75;12.77;;;;;;;12.72;63.27;102891.69;4847595;28;119869;-75
2021/10/08 02:10:40;;;;;;;18.60;12.80;;;;;;;12.71;62.73;102897.59;4823393;28;121166;-74
2021/10/08 02:13:08;;;;;;;20.70;13.35;;;;;;;12.69;62.97;102898.00;4841607;28;119613;-74
2021/10/08 02:15:35;;;;;;;22.95;14.15;;;;;;;12.67;62.94;102899.63;4814648;28;120249;-73
2021/10/08 02:18:02;;;;;;;25.80;13.40;;;;;;;12.61;63.07;102896.53;4849003;28;122008;-73
2021/10/08 02:20:29;;;;;;;18.60;12.57;;;;;;;12.55;63.27;102887.19;4848640;28;119488;-74
2021/10/08 02:22:55;;;;;;;20.65;13.13;;;;;;;12.62;63.21;102902.81;4828609;28;119592;-74
2021/10/08 02:25:22;;;;;;;21.92;11.93;;;;;;;12.53;62.89;102884.03;4843544;28;121090;-73
2021/10/08 02:27:48;;;;;;;20.17;11.95;;;;;;;12.54;63.04;102891.13;4833759;28;119938;-73
2021/10/08 02:30:15;;;;;;;19.42;12.50;;;;;;;12.56;63.22;102894.25;4837687;28;119697;-75
2021/10/08 02:32:41;;;;;;;21.55;12.25;;;;;;;12.57;63.04;102901.31;4834204;28;120019;-74
2021/10/08 02:35:09;;;;;;;19.67;12.70;;;;;;;12.55;63.30;102907.22;4809800;29;119943;-74
2021/10/08 02:37:35;;;;;;;27.02;14.35;;;;;;;12.51;63.29;102894.66;4859867;28;119979;-74
2021/10/08 02:40:03;;;;;;;24.38;13.57;;;;;;;12.54;63.24;102896.63;4834940;28;121985;-74
2021/10/08 02:42:30;;;;;;;30.27;17.45;;;;;;;12.40;62.90;102869.25;4834210;28;121134;-75
2021/10/08 02:44:55;;;;;;;33.03;19.42;;;;;;;12.42;63.46;102883.38;4804099;29;122455;-75
2021/10/08 02:47:21;;;;;;;33.20;19.48;;;;;;;12.53;63.37;102901.31;4864035;28;119581;-74
2021/10/08 02:49:48;;;;;;;51.72;18.60;;;;;;;12.52;63.10;102893.47;4827114;28;119615;-75
2021/10/08 02:52:16;;;;;;;65.22;17.63;;;;;;;12.48;63.59;102887.22;4848626;28;120142;-75
2021/10/08 02:54:44;;;;;;;47.72;17.60;;;;;;;12.50;63.46;102885.63;4826116;28;119335;-75
2021/10/08 02:57:12;;;;;;;24.52;16.15;;;;;;;12.43;63.66;102885.72;4834899;28;119585;-75
2021/10/08 02:59:39;;;;;;;24.42;15.82;;;;;;;12.48;63.68;102892.72;4837796;28;119789;-75
2021/10/08 03:02:05;;;;;;;23.42;15.18;;;;;;;12.47;63.32;102896.69;4844956;28;119720;-73
2021/10/08 03:04:31;;;;;;;22.63;14.55;;;;;;;12.47;63.53;102888.41;4847914;28;120627;-74
2021/10/08 03:06:57;;;;;;;21.80;14.82;;;;;;;12.45;63.33;102896.31;4847553;28;120850;-74
2021/10/08 03:09:26;;;;;;;20.65;14.10;;;;;;;12.46;63.51;102892.38;4849508;28;119399;-74
2021/10/08 03:11:52;;;;;;;24.08;15.10;;;;;;;12.36;63.40;102872.03;4833918;28;120124;-74
2021/10/08 03:14:17;;;;;;;19.00;13.23;;;;;;;12.41;63.25;102874.34;4858897;28;119593;-74
2021/10/08 03:16:45;;;;;;;22.13;13.95;;;;;;;12.38;63.20;102874.38;4858378;28;119351;-74
2021/10/08 03:19:10;;;;;;;21.42;14.20;;;;;;;12.44;63.36;102884.53;4853467;28;119672;-75
2021/10/08 03:21:36;;;;;;;19.88;13.98;;;;;;;12.41;63.11;102881.81;4830841;28;119522;-75
2021/10/08 03:24:02;;;;;;;21.48;13.90;;;;;;;12.43;63.46;102882.97;4841718;28;120056;-74
2021/10/08 03:26:32;;;;;;;20.92;13.27;;;;;;;12.42;63.25;102880.63;4829559;28;119964;-74
2021/10/08 03:28:58;;;;;;;19.65;12.77;;;;;;;12.41;63.07;102884.56;4847709;28;119680;-75
2021/10/08 03:31:24;;;;;;;18.33;12.45;;;;;;;12.32;63.04;102878.78;4846898;28;119489;-74
2021/10/08 03:33:50;;;;;;;18.25;12.43;;;;;;;12.36;63.26;102871.25;4831159;28;119559;-75
2021/10/08 03:36:31;;;;;;;17.73;12.20;;;;;;;12.31;63.14;102866.97;4853005;28;119600;-75
2021/10/08 03:38:57;;;;;;;17.48;11.48;;;;;;;12.36;63.10;102880.28;4848331;28;119920;-74
2021/10/08 03:41:23;;;;;;;18.48;11.82;;;;;;;12.37;62.83;102886.56;4816746;29;119823;-74
2021/10/08 03:43:53;;;;;;;15.40;11.15;;;;;;;12.35;63.11;102886.22;4817674;28;122446;-74
2021/10/08 03:46:20;;;;;;;16.88;12.10;;;;;;;12.35;63.11;102894.47;4838199;28;119959;-74
2021/10/08 03:49:11;;;;;;;16.45;11.05;;;;;;;12.31;62.93;102891.75;4831513;28;120144;-73
2021/10/08 03:51:40;;;;;;;16.17;11.55;;;;;;;12.32;63.01;102892.53;4833095;28;120066;-75
2021/10/08 03:54:06;;;;;;;15.05;10.88;;;;;;;12.30;63.23;102903.91;4809170;28;120133;-75
2021/10/08 03:56:35;;;;;;;16.52;11.68;;;;;;;12.27;63.09;102890.97;4821488;28;120258;-75
2021/10/08 03:59:02;;;;;;;17.52;11.80;;;;;;;12.28;63.08;102901.59;4849500;28;119792;-74
2021/10/08 04:01:29;;;;;;;18.23;11.40;;;;;;;12.17;62.77;102884.41;4816339;28;121001;-74
2021/10/08 04:03:59;;;;;;;20.20;12.15;;;;;;;12.26;63.19;102901.22;4829821;28;119188;-74
2021/10/08 04:06:26;;;;;;;17.70;12.68;;;;;;;12.26;63.02;102900.44;4844051;28;119866;-73
2021/10/08 04:08:52;;;;;;;19.92;12.57;;;;;;;12.25;63.01;102899.66;4808084;28;120934;-73
2021/10/08 04:11:18;;;;;;;21.25;13.02;;;;;;;12.18;63.04;102902.47;4840958;28;122978;-73
2021/10/08 04:13:46;;;;;;;20.98;11.18;;;;;;;12.24;62.89;102906.34;4837091;28;119863;-74
2021/10/08 04:16:12;;;;;;;20.92;12.40;;;;;;;12.21;62.58;102903.63;4842483;28;119476;-74
2021/10/08 04:18:41;;;;;;;22.88;12.88;;;;;;;12.18;62.58;102902.47;4828818;28;120168;-74
2021/10/08 04:21:08;;;;;;;26.83;14.25;;;;;;;12.17;62.53;102911.91;4830846;28;119928;-74
2021/10/08 04:23:35;;;;;;;49.17;17.15;;;;;;;12.21;62.68;102911.88;4840395;28;119419;-75
2021/10/08 04:26:01;;;;;;;38.85;18.42;;;;;;;12.18;62.71;102910.72;4829390;28;119853;-74
2021/10/08 04:28:27;;;;;;;31.45;18.00;;;;;;;12.15;62.74;102916.28;4827810;28;119558;-74
2021/10/08 04:30:53;;;;;;;26.60;16.45;;;;;;;12.09;63.11;102910.44;4838438;28;120036;-74
2021/10/08 04:33:23;;;;;;;28.55;15.60;;;;;;;12.10;63.25;102917.50;4828879;28;119845;-74
2021/10/08 04:36:01;;;;;;;21.77;13.73;;;;;;;12.05;63.25;102912.41;4834737;28;120028;-74
2021/10/08 04:38:32;;;;;;;24.13;14.20;;;;;;;12.15;63.50;102924.53;4838867;28;119634;-74
2021/10/08 04:41:04;;;;;;;19.70;13.18;;;;;;;12.15;63.37;102927.28;4829840;28;119493;-74
2021/10/08 04:43:32;;;;;;;22.63;13.65;;;;;;;12.16;63.32;102931.59;4820643;28;120979;-75
2021/10/08 04:45:59;;;;;;;20.85;13.40;;;;;;;12.09;62.88;102918.69;4828903;28;120326;-75
2021/10/08 04:48:25;;;;;;;21.38;13.20;;;;;;;12.10;62.76;102931.25;4817688;28;119362;-74
2021/10/08 04:50:52;;;;;;;23.55;13.65;;;;;;;12.14;62.99;102923.75;4831065;28;119847;-73
2021/10/08 04:53:22;;;;;;;18.73;13.25;;;;;;;12.16;62.77;102931.59;4843121;28;119646;-73
2021/10/08 04:55:52;;;;;;;20.58;12.77;;;;;;;12.15;62.75;102930.81;4827304;28;119665;-73
2021/10/08 04:58:19;;;;;;;18.83;12.90;;;;;;;12.12;62.97;102926.13;4846842;28;119739;-74
2021/10/08 05:00:45;;;;;;;22.00;12.88;;;;;;;12.10;62.99;102928.50;4824192;28;119572;-74
2021/10/08 05:03:14;;;;;;;20.60;13.27;;;;;;;12.14;63.20;102931.22;4813814;28;120853;-75
2021/10/08 05:05:50;;;;;;;20.45;12.68;;;;;;;12.14;63.11;102934.75;4860671;28;119547;-74
2021/10/08 05:08:21;;;;;;;21.38;12.73;;;;;;;12.15;63.37;102938.28;4835219;28;119929;-74
2021/10/08 05:10:49;;;;;;;20.75;12.55;;;;;;;12.14;63.37;102933.97;4843170;28;120339;-73
2021/10/08 05:13:16;;;;;;;21.27;13.57;;;;;;;12.13;62.91;102940.66;4832160;29;120112;-74
2021/10/08 05:15:42;;;;;;;20.60;12.30;;;;;;;12.11;62.69;102949.31;4818675;28;121047;-74
2021/10/08 05:18:09;;;;;;;20.92;12.77;;;;;;;12.09;62.97;102935.19;4832370;28;120437;-74
2021/10/08 05:20:36;;;;;;;20.83;12.52;;;;;;;12.01;63.16;102936.41;4817212;28;119926;-74
2021/10/08 05:23:03;;;;;;;17.55;11.75;;;;;;;12.10;62.89;102942.25;4838640;28;119578;-74
2021/10/08 05:25:30;;;;;;;19.88;13.43;;;;;;;12.09;62.94;102957.19;4854146;28;122748;-74
2021/10/08 05:27:58;;;;;;;18.30;12.05;;;;;;;12.06;62.95;102952.47;4851058;28;119302;-75
2021/10/08 05:30:24;;;;;;;17.33;12.25;;;;;;;12.01;62.76;102943.88;4830977;28;121177;-74
2021/10/08 05:32:50;;;;;;;22.00;12.45;;;;;;;12.04;62.70;102954.09;4825568;28;119409;-74
2021/10/08 05:35:16;;;;;;;21.25;13.60;;;;;;;12.05;62.72;102958.41;4845441;28;119391;-75
2021/10/08 05:37:43;;;;;;;20.25;13.10;;;;;;;12.04;62.76;102957.63;4843790;28;119776;-75
2021/10/08 05:40:09;;;;;;;20.02;13.02;;;;;;;11.91;62.46;102945.56;4834251;28;119586;-74
2021/10/08 05:42:36;;;;;;;19.73;13.07;;;;;;;12.03;62.86;102963.53;4834816;28;119956;-75
2021/10/08 05:45:03;;;;;;;18.02;12.80;;;;;;;11.99;62.85;102955.31;4816972;28;120998;-74
2021/10/08 05:47:30;;;;;;;18.92;12.98;;;;;;;12.00;63.01;102967.88;4852464;28;120684;-74
2021/10/08 05:49:56;;;;;;;17.45;12.13;;;;;;;12.03;63.16;102969.81;4816574;28;122049;-74
2021/10/08 05:52:23;;;;;;;18.38;12.98;;;;;;;11.99;63.38;102960.81;4815867;28;119625;-74
2021/10/08 05:54:48;;;;;;;23.20;14.02;;;;;;;12.02;63.10;102970.22;4845221;28;122061;-73
2021/10/08 05:57:14;;;;;;;20.13;13.45;;;;;;;11.96;62.93;102967.13;4841848;28;120126;-74
2021/10/08 05:59:41;;;;;;;24.40;13.18;;;;;;;11.97;62.78;102966.72;4838310;28;121289;-73
2021/10/08 06:02:06;;;;;;;20.08;14.10;;;;;;;12.03;62.77;102978.06;4824958;28;120933;-74
2021/10/08 06:04:32;;;;;;;20.10;14.10;;;;;;;11.99;63.13;102972.59;4855562;28;119596;-74
2021/10/08 06:06:58;;;;;;;20.98;14.73;;;;;;;12.03;62.76;102978.06;4857074;28;119932;-74
2021/10/08 06:09:24;;;;;;;20.65;14.82;;;;;;;12.01;63.04;102971.41;4837956;28;121016;-74
2021/10/08 06:11:52;;;;;;;22.02;15.85;;;;;;;12.08;62.89;102985.91;4820476;28;119399;-74
2021/10/08 06:14:18;;;;;;;23.67;16.15;;;;;;;12.11;63.16;102981.56;4848103;28;122940;-75
2021/10/08 06:16:44;;;;;;;22.15;14.82;;;;;;;12.13;63.12;102981.94;4810300;28;121600;-74
2021/10/08 06:19:11;;;;;;;24.08;14.48;;;;;;;12.13;63.37;102985.47;4840903;28;120825;-74
2021/10/08 06:21:38;;;;;;;22.25;14.68;;;;;;;12.16;63.10;102987.41;4830552;28;119799;-75
2021/10/08 06:24:07;;;;;;;20.38;14.15;;;;;;;12.17;63.43;102988.97;4810632;28;121004;-74
2021/10/08 06:26:34;;;;;;;22.92;15.18;;;;;;;12.18;63.47;102984.25;4838386;28;119641;-74
2021/10/08 06:29:00;;;;;;;23.63;15.77;;;;;;;12.21;63.37;102988.94;4844821;28;119863;-73
2021/10/08 06:31:29;;;;;;;27.77;16.10;;;;;;;12.28;63.01;102995.16;4825164;28;119994;-74
2021/10/08 06:33:54;;;;;;;26.15;16.23;;;;;;;12.29;63.30;102990.44;4830055;28;119658;-75
2021/10/08 06:36:21;;;;;;;24.23;18.00;;;;;;;12.34;63.53;102989.22;4813005;28;119575;-74
2021/10/08 06:38:48;;;;;;;29.58;17.70;;;;;;;12.42;63.22;102998.97;4851588;28;119669;-73
2021/10/08 06:41:15;;;;;;;28.85;17.60;;;;;;;12.46;63.65;103002.47;4826675;28;119819;-74
2021/10/08 06:43:43;;;;;;;26.23;16.60;;;;;;;12.47;63.42;103002.06;4842786;28;120568;-74
2021/10/08 06:46:21;;;;;;;28.38;17.33;;;;;;;12.54;64.27;103004.78;4843543;28;119755;-74
2021/10/08 06:48:49;;;;;;;28.13;17.15;;;;;;;12.59;64.22;103004.34;4828843;28;120482;-74
2021/10/08 06:51:15;;;;;;;33.25;17.52;;;;;;;12.62;64.22;102996.44;4816473;28;119646;-74
2021/10/08 06:53:42;;;;;;;27.48;17.65;;;;;;;12.71;64.50;103014.03;4827112;28;119941;-74
2021/10/08 06:56:09;;;;;;;32.00;18.33;;;;;;;12.76;64.35;103010.06;4824342;28;121350;-74
2021/10/08 06:58:54;;;;;;;31.17;19.00;;;;;;;12.81;64.84;103010.41;4846287;28;120099;-74
2021/10/08 07:01:22;;;;;;;29.75;18.35;;;;;;;12.87;65.06;103010.75;4828436;28;121590;-74
2021/10/08 07:03:49;;;;;;;30.92;18.65;;;;;;;12.96;65.38;103021.25;4822519;28;119915;-73
2021/10/08 07:06:16;;;;;;;33.20;19.63;;;;;;;12.99;65.33;103012.97;4847794;28;120003;-75
2021/10/08 07:08:42;;;;;;;32.38;20.48;;;;;;;13.09;65.48;103025.06;4842310;28;119874;-74
2021/10/08 07:11:10;;;;;;;34.15;19.83;;;;;;;13.14;65.89;103013.59;4844523;28;123147;-75
2021/10/08 07:13:35;;;;;;;33.25;19.63;;;;;;;13.15;65.96;103004.91;4846103;28;119844;-75
2021/10/08 07:16:02;;;;;;;33.90;20.95;;;;;;;13.27;66.31;103009.16;4824708;28;121416;-75
2021/10/08 07:18:36;;;;;;;36.28;21.08;;;;;;;13.37;66.56;103018.47;4839005;28;119846;-74
2021/10/08 07:21:04;;;;;;;41.25;24.83;;;;;;;13.48;66.44;103025.38;4828243;28;121947;-75
2021/10/08 07:23:33;;;;;;;39.08;23.42;;;;;;;13.52;66.73;103020.63;4829241;28;119803;-74
2021/10/08 07:25:59;;;;;;;40.28;24.38;;;;;;;13.68;66.90;103030.25;4866738;28;119954;-74
2021/10/08 07:28:25;;;;;;;39.10;24.83;;;;;;;13.73;67.36;103027.06;4827917;28;121454;-74
2021/10/08 07:30:53;;;;;;;46.05;26.50;;;;;;;13.86;67.55;103033.56;4839642;28;120266;-75
2021/10/08 07:33:20;;;;;;;44.35;27.13;;;;;;;13.95;67.50;103042.09;4838042;28;119707;-75
2021/10/08 07:35:46;;;;;;;45.50;26.42;;;;;;;14.05;68.04;103043.16;4845775;28;123912;-74
2021/10/08 07:38:12;;;;;;;45.17;27.17;;;;;;;14.10;68.18;103032.41;4844249;28;119415;-75
2021/10/08 07:40:38;;;;;;;40.22;25.05;;;;;;;14.28;68.04;103048.69;4843018;28;120251;-74
2021/10/08 07:43:05;;;;;;;43.63;25.70;;;;;;;14.34;68.09;103041.50;4836589;28;120503;-75
2021/10/08 07:45:34;;;;;;;47.67;27.48;;;;;;;14.48;68.19;103051.56;4839200;28;120351;-74
2021/10/08 07:48:01;;;;;;;44.85;27.65;;;;;;;14.50;68.23;103046.41;4839706;28;121386;-74
2021/10/08 07:50:26;;;;;;;44.53;26.45;;;;;;;14.70;68.29;103047.25;4825337;28;120576;-74
2021/10/08 07:52:52;;;;;;;45.47;26.75;;;;;;;14.84;68.99;103050.94;4819477;28;119512;-74
2021/10/08 07:55:18;;;;;;;44.65;27.13;;;;;;;14.99;68.53;103058.56;4840022;28;119467;-74
2021/10/08 07:57:44;;;;;;;45.03;26.45;;;;;;;15.11;68.70;103059.91;4846472;28;119865;-74
2021/10/08 08:00:13;;;;;;;43.95;26.33;;;;;;;15.20;68.23;103048.28;4845496;28;119788;-74
2021/10/08 08:02:40;;;;;;;45.95;27.60;;;;;;;15.38;68.36;103064.50;4839657;28;120479;-75
2021/10/08 08:05:06;;;;;;;45.25;26.77;;;;;;;15.50;68.85;103064.66;4827723;28;120679;-74
2021/10/08 08:07:32;;;;;;;39.78;24.40;;;;;;;15.52;68.26;103056.72;4820104;29;119667;-74
2021/10/08 08:09:57;;;;;;;37.63;24.95;;;;;;;15.75;67.96;103068.91;4815368;29;119788;-74
2021/10/08 08:12:24;;;;;;;39.08;25.35;;;;;;;15.85;67.73;103065.13;4840269;28;119772;-73
2021/10/08 08:14:51;;;;;;;37.78;24.08;;;;;;;15.96;67.86;103071.22;4842588;28;119964;-74
2021/10/08 08:17:17;;;;;;;38.65;23.98;;;;;;;16.03;67.77;103068.28;4854207;28;120387;-75
2021/10/08 08:19:43;;;;;;;39.55;24.88;;;;;;;16.14;67.59;103073.56;4837840;28;119451;-74
2021/10/08 08:22:09;;;;;;;38.00;25.30;;;;;;;16.20;67.63;103071.84;4836911;28;122776;-74
2021/10/08 08:24:36;;;;;;;38.63;23.45;;;;;;;16.30;67.75;103065.25;4821070;28;119982;-74
2021/10/08 08:27:02;;;;;;;40.20;25.38;;;;;;;16.42;67.76;103072.88;4840320;28;119665;-73
2021/10/08 08:29:28;;;;;;;35.05;21.92;;;;;;;16.50;67.70;103067.94;4835774;28;121289;-74
2021/10/08 08:31:54;;;;;;;31.17;20.45;;;;;;;16.58;67.79;103075.66;4822381;28;119936;-74
2021/10/08 08:34:22;;;;;;;28.30;18.95;;;;;;;16.68;67.21;103067.53;4826358;28;119564;-74
2021/10/08 08:36:49;;;;;;;31.90;20.27;;;;;;;16.70;67.23;103065.09;4811611;28;121526;-74
2021/10/08 08:39:18;;;;;;;32.13;20.20;;;;;;;16.80;67.35;103075.16;4857237;28;119553;-73
2021/10/08 08:41:44;;;;;;;26.98;18.55;;;;;;;16.91;67.23;103075.63;4836285;28;121097;-74
2021/10/08 08:44:10;;;;;;;29.75;18.40;;;;;;;17.00;67.17;103075.78;4820311;28;120028;-74
2021/10/08 08:46:37;;;;;;;22.70;15.05;;;;;;;17.07;66.83;103078.38;4847301;28;119767;-74
2021/10/08 08:49:04;;;;;;;20.25;13.27;;;;;;;17.13;67.22;103064.75;4830454;28;120049;-74
2021/10/08 08:51:33;;;;;;;23.20;12.10;;;;;;;17.25;66.85;103077.84;4840963;28;120965;-74
2021/10/08 08:54:06;;;;;;;17.98;11.88;;;;;;;17.32;66.11;103074.13;4817113;28;120476;-74
2021/10/08 08:56:33;;;;;;;16.90;10.85;;;;;;;17.28;66.17;103065.91;4824600;28;120047;-74
2021/10/08 08:59:08;;;;;;;15.63;10.38;;;;;;;17.44;66.08;103081.69;4843634;28;119987;-75
2021/10/08 09:01:35;;;;;;;14.43;9.57;;;;;;;17.49;65.96;103075.59;4846921;28;121242;-74
2021/10/08 09:04:06;;;;;;;14.63;9.60;;;;;;;17.54;65.92;103085.41;4847753;28;119814;-74
2021/10/08 09:06:39;;;;;;;13.77;10.30;;;;;;;17.58;65.61;103075.75;4851076;28;119654;-74
2021/10/08 09:09:16;;;;;;;13.45;10.40;;;;;;;17.68;65.30;103082.22;4851148;28;120274;-74
2021/10/08 09:11:42;;;;;;;17.00;9.90;;;;;;;17.73;65.19;103081.66;4846676;28;119873;-75
2021/10/08 09:14:26;;;;;;;16.77;10.55;;;;;;;17.75;65.38;103071.69;4803959;28;121249;-74
2021/10/08 09:17:15;;;;;;;14.27;9.38;;;;;;;17.82;65.13;103072.69;4863553;28;121083;-74
2021/10/08 09:19:51;;;;;;;16.65;10.98;;;;;;;17.85;65.05;103069.03;4806396;28;123372;-74
2021/10/08 09:22:22;;;;;;;17.20;11.18;;;;;;;17.85;64.41;103071.81;4847089;28;119677;-75
2021/10/08 09:24:49;;;;;;;19.58;10.93;;;;;;;17.92;64.81;103077.13;4836663;28;121075;-74
2021/10/08 09:27:19;;;;;;;17.30;10.18;;;;;;;17.97;65.03;103062.69;4846009;28;119982;-74
2021/10/08 09:29:48;;;;;;;17.13;11.38;;;;;;;17.99;65.00;103074.16;4828334;28;121626;-74
2021/10/08 09:32:15;;;;;;;18.00;11.05;;;;;;;18.01;64.97;103072.47;4828463;28;122937;-74
2021/10/08 09:34:40;;;;;;;15.95;10.57;;;;;;;18.04;64.77;103065.25;4846293;28;121836;-75
2021/10/08 09:37:09;;;;;;;14.63;10.45;;;;;;;18.11;64.76;103070.56;4840397;28;120646;-75
2021/10/08 09:39:37;;;;;;;16.75;11.32;;;;;;;18.19;64.60;103073.91;4839458;28;120135;-74
2021/10/08 09:42:11;;;;;;;17.35;10.20;;;;;;;18.22;64.71;103071.03;4841671;28;120206;-74
2021/10/08 09:44:45;;;;;;;12.95;9.93;;;;;;;18.26;64.15;103076.47;4845757;28;120575;-75
2021/10/08 09:47:15;;;;;;;14.57;9.52;;;;;;;18.21;64.30;103058.34;4842046;28;126044;-74
2021/10/08 09:49:42;;;;;;;12.25;8.98;;;;;;;18.29;63.93;103076.34;4835612;28;120058;-74
2021/10/08 09:52:24;;;;;;;14.15;9.35;;;;;;;18.33;64.06;103077.00;4830645;28;120306;-74
2021/10/08 09:54:53;;;;;;;14.30;8.77;;;;;;;18.33;63.64;103071.44;4848042;28;120676;-74
2021/10/08 09:57:21;;;;;;;14.60;9.18;;;;;;;18.30;63.61;103054.91;4843706;28;120461;-74
2021/10/08 09:59:49;;;;;;;16.95;8.20;;;;;;;18.41;63.17;103069.97;4821603;28;119937;-74
2021/10/08 10:02:15;;;;;;;13.18;7.63;;;;;;;18.41;63.12;103064.41;4836516;28;120538;-74
2021/10/08 10:04:55;;;;;;;11.10;6.97;;;;;;;18.44;62.95;103059.97;4832628;28;119458;-74
2021/10/08 10:07:26;;;;;;;12.75;7.28;;;;;;;18.48;62.75;103065.44;4828486;28;120286;-74
2021/10/08 10:09:52;;;;;;;16.80;8.10;;;;;;;18.50;62.20;103066.53;4827016;28;120333;-74
2021/10/08 10:12:20;;;;;;;15.63;8.65;;;;;;;18.56;62.68;103075.84;4856992;28;120050;-74
2021/10/08 10:14:48;;;;;;;12.75;7.95;;;;;;;18.49;62.90;103053.09;4843578;28;120040;-74
2021/10/08 10:17:16;;;;;;;13.73;7.85;;;;;;;18.61;62.79;103069.72;4823278;28;120961;-74
2021/10/08 10:19:46;;;;;;;12.85;7.90;;;;;;;18.62;62.30;103062.16;4838307;28;120030;-74
2021/10/08 10:22:15;;;;;;;13.20;7.53;;;;;;;18.71;62.37;103073.41;4821901;29;121125;-74
2021/10/08 10:24:43;;;;;;;10.82;7.78;;;;;;;18.66;62.31;103065.63;4846540;28;120418;-74
2021/10/08 10:27:12;;;;;;;13.50;7.25;;;;;;;18.72;62.71;103068.63;4842036;28;120102;-74
2021/10/08 10:29:40;;;;;;;12.43;7.70;;;;;;;18.63;62.77;103052.63;4843797;28;120897;-78
2021/10/08 10:32:08;;;;;;;10.32;7.03;;;;;;;18.79;62.09;103071.16;4830766;28;119719;-73
2021/10/08 10:34:39;;;;;;;11.15;6.22;;;;;;;18.81;61.53;103068.69;4826524;28;120085;-74
2021/10/08 10:37:08;;;;;;;8.82;5.97;;;;;;;18.85;61.56;103072.13;4838359;28;122150;-74
2021/10/08 10:39:34;;;;;;;8.80;6.85;;;;;;;18.84;62.14;103068.56;4839571;28;119715;-74
2021/10/08 10:42:00;;;;;;;10.05;6.40;;;;;;;18.90;62.27;103077.09;4831009;28;120643;-76
2021/10/08 10:47:33;;;;;;;8.98;5.72;;;;;;;18.93;61.54;103065.88;4836472;28;119850;-74
2021/10/08 10:50:25;;;;;;;11.52;6.88;;;;;;;18.99;61.75;103072.41;4814367;28;120347;-75
2021/10/08 10:52:55;;;;;;;9.18;6.82;;;;;;;19.00;60.92;103062.84;4806598;28;123594;-73
2021/10/08 10:55:24;;;;;;;12.32;6.97;;;;;;;18.98;61.15;103062.50;4810479;28;121346;-74
2021/10/08 10:57:54;;;;;;;9.18;7.20;;;;;;;19.06;61.53;103062.25;4839466;28;121068;-74
2021/10/08 11:00:33;;;;;;;11.18;7.80;;;;;;;19.13;62.44;103064.75;4834758;28;121118;-75
2021/10/08 11:03:05;;;;;;;13.88;8.80;;;;;;;19.14;62.42;103055.19;4824437;28;120499;-74
2021/10/08 11:05:32;;;;;;;12.27;8.55;;;;;;;19.18;62.05;103047.50;4843379;28;122317;-74
2021/10/08 11:08:11;;;;;;;15.13;8.00;;;;;;;19.27;61.86;103065.03;4844122;28;119654;-74
2021/10/08 11:10:58;;;;;;;11.65;8.00;;;;;;;19.26;61.87;103068.28;4826030;28;119695;-74